Cumberland, RI

3:20 PM EDT on April 18, 2015 (GMT -0400)
Lippitt Estates | | Change Station
CLOSE
Current Station
Personal Weather Station
Location: Cumberland, RI
Elevation: 354 ft
Nearby Weather Stations
Active Advisory: Special Statement

Elev 354 ft 41.96 °N, 71.42 °W | Updated 7 seconds ago

Clear
Clear
75.4 °F
Feels Like 76 °F
N
4.0
Wind Variable Wind from ESE
Gusts 4.9 mph

Today
High -- | Low -- °F
--% Chance of Precip.
Yesterday
High -- | Low -- °F
Precip. -- in
6:01 AM 7:29 PM
New Moon, 0% visible
Pressure 29.83 in
Visibility 10.0 miles
Clouds Few 9000 ft
Heat Index 76 °F
Dew Point 33 °F
Humidity 21%
Rainfall 0.00 in
Snow Depth Not available.
UV 4.0 out of 12
Pollen 11.30 out of 12
Air Quality Not available.
Flu Activity Local Activity
METAR KSFZ 181915Z 29011G19KT 10SM FEW090 23/01 A2983 RMK AO1

More Conditions Fewer Conditions

Pressure 29.83 in
Visibility 10.0 miles
Clouds Few 9000 ft
Heat Index 76 °F
Dew Point 33 °F
Humidity 21%
Rainfall 0.00 in
Snow Depth Not available.
UV 4.0 out of 12
Pollen 11.30 out of 12
Air Quality Not available.
Flu Activity Local Activity
METAR KSFZ 181915Z 29011G19KT 10SM FEW090 23/01 A2983 RMK AO1

More Conditions Fewer Conditions

10-Day Weather Forecast

Almanac

Astronomy

Apr. 18, 2015 Rise Set
Actual Time
Civil Twilight
Nautical Twilight
Astronomical Twilight
Moon
Length of Visible Light
Length of Day
Tomorrow will be .
, % of the Moon is Illuminated

Today's Extremes

State Highs State Lows

Community

WunderPhotos

Upload Photos

1,814,501 photos uploaded!

WunderBlogs® & News

Nearby

Air Quality

  Air Quality AQ Index Pollutant
Not available.

Snow Depth

Station Depth Elevation

Earthquake Activity

City Distance Mag. Time & Date
Minimum magnitude displayed is 2.5.

Coastal Water Temperatures

Place Temperature

Stations

Nearby Weather Stations

Station Location Temp. Windchill Dew Point Humidity Wind Precip. Elev Updated Type
                   
Special Statement
Statement as of 4:27 AM EDT on April 18, 2015

... Elevated fire weather potential today...

There is the potential for elevated fire weather conditions today
across central and eastern interior Massachusetts as well as
northwest Rhode Island.

As temperatures warm into the low-70s by midday... relative humidity
values will to drop as low as 20 percent. Combined with breezy west-
northwest winds during the afternoon into evening hours sustained
around 15 mph with gusts around 25 mph... there is an elevated fire
risk considering the dry fuels and lack of rainfall across the
region as of late.

Caution should be used if any open burning is planned.


Sipprell